createdAt,value
2019-05-09T00:01:26.711Z,99292.84
2019-05-09T00:03:56.471Z,99290.05
2019-05-09T00:06:26.275Z,99285.63
2019-05-09T00:08:56.044Z,99280.80
2019-05-09T00:11:25.839Z,99288.32
2019-05-09T00:13:55.588Z,99295.21
2019-05-09T00:16:25.277Z,99289.30
2019-05-09T00:18:55.133Z,99283.98
2019-05-09T00:21:30.454Z,99283.98
2019-05-09T00:24:00.198Z,99289.79
2019-05-09T00:26:29.964Z,99289.23
2019-05-09T00:29:03.940Z,99281.78
2019-05-09T00:31:58.310Z,99280.39
2019-05-09T00:34:37.690Z,99283.24
2019-05-09T00:37:07.437Z,99284.08
2019-05-09T00:39:37.128Z,99288.25
2019-05-09T00:42:06.883Z,99285.47
2019-05-09T00:44:38.251Z,99297.16
2019-05-09T00:47:23.953Z,99297.51
2019-05-09T00:49:54.234Z,99294.72
2019-05-09T00:52:24.065Z,99292.00
2019-05-09T00:54:53.760Z,99292.25
2019-05-09T00:57:35.863Z,99288.98
2019-05-09T01:00:09.736Z,99286.44
2019-05-09T01:02:39.435Z,99283.75
2019-05-09T01:05:09.210Z,99290.95
2019-05-09T01:07:38.948Z,99279.58
2019-05-09T01:10:09.292Z,99286.78
2019-05-09T01:12:39.059Z,99293.80
2019-05-09T01:15:09.871Z,99285.70
2019-05-09T01:17:39.684Z,99284.97
2019-05-09T01:20:10.774Z,99291.43
2019-05-09T01:22:40.513Z,99286.45
2019-05-09T01:25:10.544Z,99278.11
2019-05-09T01:27:40.311Z,99277.86
2019-05-09T01:30:10.763Z,99287.83
2019-05-09T01:32:59.455Z,99292.41
2019-05-09T01:35:29.166Z,99298.94
2019-05-09T01:37:58.863Z,99309.42
2019-05-09T01:40:28.661Z,99305.90
2019-05-09T01:42:58.351Z,99307.20
2019-05-09T01:45:28.075Z,99308.34
2019-05-09T01:47:57.804Z,99312.45
2019-05-09T01:50:27.506Z,99315.48
2019-05-09T01:52:57.292Z,99320.30
2019-05-09T01:55:47.204Z,99321.63
2019-05-09T01:58:16.906Z,99316.25
2019-05-09T02:00:46.596Z,99310.99
2019-05-09T02:03:16.311Z,99318.50
2019-05-09T02:05:46.079Z,99323.58
2019-05-09T02:08:16.573Z,99328.89
2019-05-09T02:10:46.401Z,99330.63
2019-05-09T02:13:16.085Z,99325.86
2019-05-09T02:16:07.469Z,99325.56
2019-05-09T02:18:45.056Z,99322.53
2019-05-09T02:21:14.825Z,99330.87
2019-05-09T02:23:44.613Z,99329.55
2019-05-09T02:26:14.454Z,99333.97
2019-05-09T02:28:44.211Z,99334.22
2019-05-09T02:31:16.306Z,99331.67
2019-05-09T02:33:45.923Z,99336.10
2019-05-09T02:36:18.741Z,99327.44
2019-05-09T02:38:48.687Z,99331.80
2019-05-09T02:41:19.708Z,99333.09
2019-05-09T02:43:50.024Z,99331.39
2019-05-09T02:46:29.386Z,99328.86
2019-05-09T02:48:59.463Z,99330.25
2019-05-09T02:51:29.624Z,99331.89
2019-05-09T02:54:00.288Z,99329.91
2019-05-09T02:56:30.036Z,99321.80
2019-05-09T02:59:18.949Z,99333.18
2019-05-09T03:01:58.310Z,99324.59
2019-05-09T03:04:28.406Z,99323.20
2019-05-09T03:06:59.614Z,99334.91
2019-05-09T03:09:30.841Z,99333.28
2019-05-09T03:12:20.527Z,99335.16
2019-05-09T03:14:32.103Z,99336.30
2019-05-09T03:17:01.784Z,99335.16
2019-05-09T03:19:31.498Z,99344.56
2019-05-09T03:22:08.760Z,99344.00
2019-05-09T03:24:39.402Z,99350.97
2019-05-09T03:27:15.216Z,99353.66
2019-05-09T03:29:49.141Z,99362.75
2019-05-09T03:32:19.651Z,99357.83
2019-05-09T03:34:49.502Z,99356.31
2019-05-09T03:37:19.265Z,99359.20
2019-05-09T03:39:49.159Z,99358.11
2019-05-09T03:42:21.594Z,99363.37
2019-05-09T03:44:50.273Z,99371.97
2019-05-09T03:47:47.910Z,99369.43
2019-05-09T03:50:18.420Z,99377.84
2019-05-09T03:52:48.174Z,99376.78
2019-05-09T03:55:22.449Z,99377.09
2019-05-09T03:57:58.771Z,99378.83
2019-05-09T04:00:28.591Z,99370.88
2019-05-09T04:02:58.278Z,99371.13
2019-05-09T04:05:28.284Z,99368.59
2019-05-09T04:08:18.221Z,99369.13
2019-05-09T04:10:52.379Z,99368.97
2019-05-09T04:13:28.147Z,99379.70
2019-05-09T04:15:58.229Z,99387.14
2019-05-09T04:18:28.198Z,99386.74
2019-05-09T04:20:57.857Z,99378.64
2019-05-09T04:23:27.748Z,99384.61
2019-05-09T04:26:07.582Z,99390.42
2019-05-09T04:28:39.639Z,99391.08
2019-05-09T04:31:08.594Z,99391.08
2019-05-09T04:33:38.474Z,99394.26
2019-05-09T04:36:08.448Z,99394.44
2019-05-09T04:38:39.978Z,99396.23
2019-05-09T04:41:09.644Z,99400.25
2019-05-09T04:43:41.029Z,99407.64
2019-05-09T04:46:12.904Z,99406.75
2019-05-09T04:48:42.238Z,99409.86
2019-05-09T04:54:33.097Z,99408.31
2019-05-09T04:57:02.870Z,99414.87
2019-05-09T04:59:32.595Z,99415.95
2019-05-09T05:02:18.270Z,99422.81
2019-05-09T05:04:48.110Z,99428.47
2019-05-09T05:07:18.175Z,99432.42
2019-05-09T05:09:48.464Z,99433.09
2019-05-09T05:12:18.650Z,99434.86
2019-05-09T05:14:48.507Z,99435.70
2019-05-09T05:17:18.292Z,99433.81
2019-05-09T05:19:48.536Z,99436.91
2019-05-09T05:22:25.113Z,99429.06
2019-05-09T05:25:00.210Z,99437.17
2019-05-09T05:27:29.920Z,99430.52
2019-05-09T05:29:59.611Z,99434.20
2019-05-09T05:32:38.904Z,99439.88
2019-05-09T05:35:28.424Z,99446.65
2019-05-09T05:37:58.317Z,99447.48
2019-05-09T05:40:32.758Z,99443.95
2019-05-09T05:42:59.567Z,99433.08
2019-05-09T05:45:31.180Z,99435.55
2019-05-09T05:48:05.192Z,99443.33
2019-05-09T05:50:34.949Z,99438.74
2019-05-09T05:53:04.750Z,99443.24
2019-05-09T05:55:34.466Z,99434.35
2019-05-09T05:58:04.296Z,99448.52
2019-05-09T06:00:33.928Z,99452.47
2019-05-09T06:03:03.869Z,99459.56
2019-05-09T06:05:33.559Z,99465.06
2019-05-09T06:08:03.341Z,99470.59
2019-05-09T06:10:33.012Z,99467.48
2019-05-09T06:13:02.745Z,99466.03
2019-05-09T06:15:32.437Z,99464.39
2019-05-09T06:18:02.165Z,99459.24
2019-05-09T06:20:31.976Z,99465.06
2019-05-09T06:23:01.656Z,99459.42
2019-05-09T06:25:31.400Z,99447.76
2019-05-09T06:28:01.254Z,99452.79
2019-05-09T06:30:32.690Z,99441.07
2019-05-09T06:33:04.865Z,99449.52
2019-05-09T06:35:33.894Z,99448.23
2019-05-09T06:38:03.673Z,99444.16
2019-05-09T06:40:34.375Z,99447.13
2019-05-09T06:43:18.387Z,99442.33
2019-05-09T06:46:12.731Z,99441.16
2019-05-09T06:48:42.477Z,99440.09
2019-05-09T06:51:12.316Z,99447.19
2019-05-09T06:53:42.075Z,99443.41
2019-05-09T06:59:38.950Z,99463.67
2019-05-09T07:02:14.524Z,99473.45
2019-05-09T07:04:47.654Z,99470.88
2019-05-09T07:07:23.938Z,99465.73
2019-05-09T07:09:58.603Z,99465.27
2019-05-09T07:12:28.301Z,99465.90
2019-05-09T07:14:58.338Z,99464.22
2019-05-09T07:17:31.715Z,99466.50
2019-05-09T07:20:00.758Z,99467.80
2019-05-09T07:22:35.212Z,99460.36
2019-05-09T07:25:20.374Z,99462.47
2019-05-09T07:27:50.112Z,99470.58
2019-05-09T07:30:29.147Z,99461.95
2019-05-09T07:33:11.004Z,99468.41
2019-05-09T07:35:41.673Z,99479.84
2019-05-09T07:38:11.360Z,99480.31
2019-05-09T07:40:41.077Z,99480.03
2019-05-09T07:43:10.762Z,99485.74
2019-05-09T07:45:42.418Z,99482.97
2019-05-09T07:48:12.120Z,99485.41
2019-05-09T07:50:41.809Z,99487.41
2019-05-09T07:53:11.478Z,99488.97
2019-05-09T07:55:41.197Z,99484.22
2019-05-09T07:58:14.241Z,99473.92
2019-05-09T08:00:42.355Z,99474.16
2019-05-09T08:03:13.239Z,99469.22
2019-05-09T08:05:43.179Z,99464.87
2019-05-09T08:08:18.600Z,99464.92
2019-05-09T08:10:48.288Z,99464.92
2019-05-09T08:13:21.349Z,99472.70
2019-05-09T08:15:49.336Z,99481.03
2019-05-09T08:18:18.992Z,99481.27
2019-05-09T08:20:48.731Z,99487.97
2019-05-09T08:23:18.442Z,99485.16
2019-05-09T08:25:48.561Z,99494.31
2019-05-09T08:28:20.133Z,99502.09
2019-05-09T08:30:50.003Z,99502.80
2019-05-09T08:33:20.736Z,99506.84
2019-05-09T08:35:52.603Z,99509.31
2019-05-09T08:38:21.993Z,99514.09
2019-05-09T08:41:09.195Z,99516.36
2019-05-09T08:43:41.050Z,99518.11
2019-05-09T08:46:12.109Z,99519.52
2019-05-09T08:48:42.305Z,99517.59
2019-05-09T08:51:23.345Z,99519.82
2019-05-09T08:53:53.106Z,99517.22
2019-05-09T08:56:22.847Z,99518.67
2019-05-09T08:58:52.589Z,99523.37
2019-05-09T09:01:31.079Z,99522.91
2019-05-09T09:03:53.849Z,99525.23
2019-05-09T09:06:23.565Z,99526.63
2019-05-09T09:08:53.232Z,99522.05
2019-05-09T09:11:22.979Z,99524.60
2019-05-09T09:13:52.736Z,99528.20
2019-05-09T09:16:22.726Z,99525.67
2019-05-09T09:18:53.599Z,99526.48
2019-05-09T09:21:23.293Z,99524.92
2019-05-09T09:23:52.946Z,99523.71
2019-05-09T09:26:22.685Z,99525.72
2019-05-09T09:28:52.429Z,99522.09
2019-05-09T09:31:22.180Z,99527.97
2019-05-09T09:33:51.877Z,99520.22
2019-05-09T09:36:21.766Z,99517.66
2019-05-09T09:38:52.419Z,99518.78
2019-05-09T09:41:22.101Z,99522.33
2019-05-09T09:43:51.838Z,99524.94
2019-05-09T09:46:21.586Z,99530.38
2019-05-09T09:48:51.277Z,99529.41
2019-05-09T09:51:20.972Z,99533.30
2019-05-09T09:53:50.680Z,99528.36
2019-05-09T09:56:22.627Z,99528.91
2019-05-09T09:59:01.627Z,99521.81
2019-05-09T10:01:33.378Z,99520.66
2019-05-09T10:04:19.857Z,99521.30
2019-05-09T10:06:44.331Z,99525.41
2019-05-09T10:09:14.065Z,99520.78
2019-05-09T10:11:43.839Z,99518.56
2019-05-09T10:14:18.748Z,99519.06
2019-05-09T10:17:03.533Z,99513.64
2019-05-09T10:19:50.662Z,99511.64
2019-05-09T10:22:24.516Z,99507.74
2019-05-09T10:24:53.322Z,99507.74
2019-05-09T10:27:23.088Z,99505.47
2019-05-09T10:29:52.876Z,99499.44
2019-05-09T10:32:22.592Z,99495.50
2019-05-09T10:34:52.282Z,99498.80
2019-05-09T10:37:21.981Z,99498.62
2019-05-09T10:39:51.740Z,99511.50
2019-05-09T10:42:31.782Z,99511.90
2019-05-09T10:45:29.280Z,99505.86
2019-05-09T10:47:59.037Z,99512.64
2019-05-09T10:50:34.085Z,99510.78
2019-05-09T10:53:00.156Z,99514.79
2019-05-09T10:55:29.823Z,99509.14
2019-05-09T10:58:02.372Z,99513.19
2019-05-09T11:00:30.998Z,99511.97
2019-05-09T11:03:00.706Z,99513.70
2019-05-09T11:05:30.394Z,99510.91
2019-05-09T11:08:00.197Z,99508.21
2019-05-09T11:10:32.858Z,99517.41
2019-05-09T11:13:03.799Z,99520.83
2019-05-09T11:15:33.532Z,99522.44
2019-05-09T11:18:03.302Z,99523.42
2019-05-09T11:20:33.035Z,99522.50
2019-05-09T11:23:02.757Z,99518.03
2019-05-09T11:25:32.529Z,99526.25
2019-05-09T11:28:10.861Z,99526.31
2019-05-09T11:30:33.985Z,99528.37
2019-05-09T11:33:03.676Z,99534.61
2019-05-09T11:35:33.455Z,99543.19
2019-05-09T11:38:03.154Z,99544.45
2019-05-09T11:40:32.869Z,99541.84
2019-05-09T11:43:02.554Z,99543.89
2019-05-09T11:45:33.366Z,99538.38
2019-05-09T11:48:03.122Z,99538.14
2019-05-09T11:50:32.888Z,99537.20
2019-05-09T11:53:02.642Z,99543.87
2019-05-09T11:55:35.934Z,99538.97
2019-05-09T11:58:03.741Z,99540.84
2019-05-09T12:00:33.433Z,99544.49
2019-05-09T12:03:03.148Z,99548.86
2019-05-09T12:05:32.906Z,99556.19
2019-05-09T12:08:02.597Z,99557.36
2019-05-09T12:10:33.459Z,99559.83
2019-05-09T12:13:03.164Z,99560.88
2019-05-09T12:15:32.838Z,99557.67
2019-05-09T12:18:08.119Z,99560.31
2019-05-09T12:20:34.013Z,99561.11
2019-05-09T12:23:04.718Z,99548.90
2019-05-09T12:25:38.609Z,99552.86
2019-05-09T12:28:08.638Z,99551.97
2019-05-09T12:30:38.398Z,99541.77
2019-05-09T12:33:08.728Z,99543.78
2019-05-09T12:35:38.710Z,99540.75
2019-05-09T12:38:08.550Z,99540.38
2019-05-09T12:40:38.901Z,99544.64
2019-05-09T12:43:09.252Z,99552.09
2019-05-09T12:45:38.991Z,99547.25
2019-05-09T12:48:15.108Z,99539.94
2019-05-09T12:50:40.161Z,99540.47
2019-05-09T12:53:09.837Z,99530.69
2019-05-09T12:55:39.520Z,99531.45
2019-05-09T12:58:27.853Z,99527.20
2019-05-09T13:00:59.293Z,99523.17
2019-05-09T13:03:29.848Z,99522.02
2019-05-09T13:05:59.621Z,99512.09
2019-05-09T13:08:29.337Z,99510.22
2019-05-09T13:11:02.323Z,99509.84
2019-05-09T13:13:32.352Z,99512.52
2019-05-09T13:16:23.873Z,99512.78
2019-05-09T13:19:07.200Z,99517.80
2019-05-09T13:21:38.976Z,99512.78
2019-05-09T13:24:08.715Z,99510.19
2019-05-09T13:26:40.825Z,99507.34
2019-05-09T13:29:10.513Z,99508.75
2019-05-09T13:31:40.222Z,99499.89
2019-05-09T13:34:09.889Z,99501.52
2019-05-09T13:36:39.639Z,99508.80
2019-05-09T13:39:10.724Z,99509.41
2019-05-09T13:41:40.759Z,99508.48
2019-05-09T13:44:13.527Z,99509.81
2019-05-09T13:46:41.873Z,99509.77
2019-05-09T13:49:15.392Z,99500.49
2019-05-09T13:51:51.031Z,99499.21
2019-05-09T13:54:15.582Z,99503.47
2019-05-09T13:56:50.493Z,99497.87
2019-05-09T13:59:19.241Z,99507.31
2019-05-09T14:01:48.995Z,99507.48
2019-05-09T14:04:18.739Z,99503.03
2019-05-09T14:06:48.866Z,99498.80
2019-05-09T14:09:19.978Z,99502.10
2019-05-09T14:11:49.901Z,99499.55
2019-05-09T14:14:19.595Z,99499.02
2019-05-09T14:16:49.366Z,99496.59
2019-05-09T14:19:39.614Z,99499.94
2019-05-09T14:21:50.464Z,99506.30
2019-05-09T14:24:20.169Z,99496.91
2019-05-09T14:26:49.965Z,99498.52
2019-05-09T14:29:20.753Z,99502.76
2019-05-09T14:31:50.591Z,99504.12
2019-05-09T14:34:20.307Z,99504.05
2019-05-09T14:36:51.097Z,99505.05
2019-05-09T14:39:20.821Z,99506.19
2019-05-09T14:41:50.493Z,99506.19
2019-05-09T14:44:20.180Z,99501.05
2019-05-09T14:46:50.270Z,99502.95
2019-05-09T14:49:19.968Z,99507.65
2019-05-09T14:51:50.187Z,99496.83
2019-05-09T14:54:20.196Z,99503.06
2019-05-09T14:56:49.933Z,99497.50
2019-05-09T14:59:19.579Z,99498.98
2019-05-09T15:01:49.734Z,99498.69
2019-05-09T15:04:19.518Z,99494.30
2019-05-09T15:06:49.325Z,99497.25
2019-05-09T15:09:19.000Z,99489.67
2019-05-09T15:11:48.858Z,99498.41
2019-05-09T15:14:18.529Z,99501.05
2019-05-09T15:16:49.373Z,99499.20
2019-05-09T15:19:19.115Z,99501.44
2019-05-09T15:21:49.084Z,99495.55
2019-05-09T15:24:19.469Z,99495.09
2019-05-09T15:26:49.415Z,99487.41
2019-05-09T15:29:19.171Z,99500.95
2019-05-09T15:31:54.571Z,99492.61
2019-05-09T15:34:20.388Z,99490.84
2019-05-09T15:36:50.160Z,99485.06
2019-05-09T15:39:19.881Z,99487.31
2019-05-09T15:41:49.727Z,99478.28
2019-05-09T15:44:19.468Z,99486.85
2019-05-09T15:46:56.698Z,99491.20
2019-05-09T15:49:28.528Z,99487.34
2019-05-09T15:51:59.250Z,99496.78
2019-05-09T15:54:29.525Z,99497.48
2019-05-09T15:56:59.473Z,99502.77
2019-05-09T15:59:29.143Z,99485.02
2019-05-09T16:01:58.968Z,99489.37
2019-05-09T16:04:28.712Z,99483.65
2019-05-09T16:06:58.420Z,99485.05
2019-05-09T16:09:28.712Z,99477.20
2019-05-09T16:11:58.496Z,99484.44
2019-05-09T16:14:28.195Z,99483.34
2019-05-09T16:16:57.872Z,99483.34
2019-05-09T16:19:27.760Z,99486.19
2019-05-09T16:21:57.562Z,99485.08
2019-05-09T16:24:28.014Z,99485.05
2019-05-09T16:26:58.164Z,99486.48
2019-05-09T16:29:29.287Z,99496.11
2019-05-09T16:31:59.377Z,99490.29
2019-05-09T16:34:29.083Z,99497.39
2019-05-09T16:36:58.761Z,99496.58
2019-05-09T16:39:28.470Z,99495.38
2019-05-09T16:41:59.192Z,99495.88
2019-05-09T16:44:29.216Z,99499.60
2019-05-09T16:46:59.072Z,99500.05
2019-05-09T16:49:29.431Z,99499.15
2019-05-09T16:51:59.418Z,99497.00
2019-05-09T16:54:33.171Z,99502.12
2019-05-09T16:57:02.899Z,99491.77
2019-05-09T16:59:32.908Z,99496.73
2019-05-09T17:02:17.846Z,99505.89
2019-05-09T17:04:34.112Z,99501.45
2019-05-09T17:07:03.989Z,99504.33
2019-05-09T17:09:37.754Z,99499.44
2019-05-09T17:12:08.347Z,99502.55
2019-05-09T17:14:38.228Z,99500.02
2019-05-09T17:17:08.502Z,99506.77
2019-05-09T17:19:38.173Z,99511.79
2019-05-09T17:22:18.345Z,99513.16
2019-05-09T17:24:49.707Z,99505.97
2019-05-09T17:27:19.548Z,99511.48
2019-05-09T17:29:49.801Z,99520.89
2019-05-09T17:32:19.776Z,99522.13
2019-05-09T17:34:49.495Z,99522.78
2019-05-09T17:37:19.169Z,99521.27
2019-05-09T17:39:49.013Z,99530.30
2019-05-09T17:42:18.775Z,99520.23
2019-05-09T17:44:48.978Z,99523.77
2019-05-09T17:47:19.765Z,99524.57
2019-05-09T17:49:49.609Z,99528.79
2019-05-09T17:52:19.326Z,99528.22
2019-05-09T17:54:49.143Z,99526.58
2019-05-09T17:57:19.145Z,99529.40
2019-05-09T17:59:49.119Z,99540.68
2019-05-09T18:02:18.921Z,99536.36
2019-05-09T18:07:59.084Z,99537.34
2019-05-09T18:10:28.897Z,99543.00
2019-05-09T18:12:58.936Z,99544.30
2019-05-09T18:15:43.450Z,99546.88
2019-05-09T18:18:13.827Z,99550.06
2019-05-09T18:20:43.765Z,99547.83
2019-05-09T18:23:13.734Z,99547.97
2019-05-09T18:25:43.589Z,99548.09
2019-05-09T18:28:13.535Z,99548.69
2019-05-09T18:30:43.339Z,99550.36
2019-05-09T18:33:34.950Z,99547.78
2019-05-09T18:36:04.902Z,99553.88
2019-05-09T18:38:35.320Z,99558.33
2019-05-09T18:41:07.956Z,99562.68
2019-05-09T18:43:36.676Z,99560.81
2019-05-09T18:46:08.368Z,99566.20
2019-05-09T18:48:38.387Z,99564.80
2019-05-09T18:51:08.192Z,99573.00
2019-05-09T18:53:37.970Z,99571.12
2019-05-09T18:56:07.841Z,99567.63
2019-05-09T18:58:37.881Z,99574.99
2019-05-09T19:01:07.672Z,99567.52
2019-05-09T19:03:37.417Z,99576.31
2019-05-09T19:06:07.184Z,99587.55
2019-05-09T19:08:36.966Z,99597.72
2019-05-09T19:11:06.944Z,99611.57
2019-05-09T19:13:36.635Z,99610.77
2019-05-09T19:16:25.361Z,99621.78
2019-05-09T19:19:12.750Z,99623.52
2019-05-09T19:21:49.013Z,99637.95
2019-05-09T19:24:18.742Z,99642.14
2019-05-09T19:30:09.464Z,99639.27
2019-05-09T19:47:39.774Z,99649.89
2019-05-09T19:50:11.249Z,99657.08
2019-05-09T19:52:41.110Z,99668.75
2019-05-09T19:55:11.057Z,99662.64
2019-05-09T19:57:49.812Z,99660.94
2019-05-09T20:00:19.971Z,99666.37
2019-05-09T20:02:49.784Z,99663.89
2019-05-09T20:05:19.888Z,99666.50
2019-05-09T20:07:49.688Z,99666.84
2019-05-09T20:10:36.683Z,99665.78
2019-05-09T20:13:17.331Z,99668.61
2019-05-09T20:16:01.957Z,99669.72
2019-05-09T20:18:32.786Z,99665.84
2019-05-09T20:21:02.548Z,99673.74
2019-05-09T20:23:32.312Z,99672.70
2019-05-09T20:26:20.911Z,99671.86
2019-05-09T20:28:56.668Z,99677.33
2019-05-09T20:31:26.392Z,99685.97
2019-05-09T20:33:56.104Z,99682.55
2019-05-09T20:36:26.096Z,99683.30
2019-05-09T20:38:56.046Z,99685.36
2019-05-09T20:41:26.034Z,99682.25
2019-05-09T20:43:55.909Z,99684.69
2019-05-09T20:46:25.950Z,99684.86
2019-05-09T20:48:55.881Z,99684.44
2019-05-09T20:51:26.752Z,99677.51
2019-05-09T20:53:56.683Z,99681.84
2019-05-09T20:59:43.100Z,99692.65
2019-05-09T21:02:13.067Z,99692.65
2019-05-09T21:04:43.046Z,99701.44
2019-05-09T21:07:12.999Z,99698.30
2019-05-09T21:09:42.882Z,99702.17
2019-05-09T21:12:12.836Z,99702.84
2019-05-09T21:14:42.710Z,99709.10
2019-05-09T21:17:12.696Z,99710.69
2019-05-09T21:19:42.681Z,99715.30
2019-05-09T21:22:12.711Z,99713.07
2019-05-09T21:24:42.689Z,99721.03
2019-05-09T21:27:12.609Z,99725.47
2019-05-09T21:29:42.456Z,99724.42
2019-05-09T21:32:12.362Z,99725.23
2019-05-09T21:34:42.085Z,99733.78
2019-05-09T21:37:13.896Z,99734.34
2019-05-09T21:39:43.359Z,99730.15
2019-05-09T21:42:13.035Z,99746.80
2019-05-09T21:44:42.812Z,99737.97
2019-05-09T21:47:12.463Z,99747.41
2019-05-09T21:49:42.203Z,99748.73
2019-05-09T21:52:11.926Z,99753.34
2019-05-09T21:54:41.703Z,99756.66
2019-05-09T21:57:13.882Z,99756.97
2019-05-09T21:59:43.690Z,99756.17
2019-05-09T22:02:14.271Z,99756.66
2019-05-09T22:04:44.050Z,99759.10
2019-05-09T22:07:13.887Z,99757.70
2019-05-09T22:09:43.696Z,99757.70
2019-05-09T22:12:13.441Z,99762.48
2019-05-09T22:14:43.298Z,99764.59
2019-05-09T22:17:17.003Z,99767.55
2019-05-09T22:19:46.827Z,99764.43
2019-05-09T22:22:16.530Z,99770.43
2019-05-09T22:24:46.214Z,99764.83
2019-05-09T22:27:16.907Z,99767.78
2019-05-09T22:29:46.631Z,99769.28
2019-05-09T22:32:16.290Z,99774.69
2019-05-09T22:34:46.072Z,99776.09
2019-05-09T22:37:15.760Z,99776.25
2019-05-09T22:39:45.446Z,99771.70
2019-05-09T22:42:16.327Z,99771.95
2019-05-09T22:44:46.069Z,99768.62
2019-05-09T22:47:15.750Z,99782.48
2019-05-09T22:49:45.442Z,99772.06
2019-05-09T22:52:15.135Z,99781.05
2019-05-09T22:54:44.782Z,99785.64
2019-05-09T22:57:14.548Z,99793.66
2019-05-09T22:59:45.046Z,99788.70
2019-05-09T23:02:14.815Z,99797.78
2019-05-09T23:04:44.571Z,99800.06
2019-05-09T23:07:14.288Z,99799.81
2019-05-09T23:09:44.059Z,99804.70
2019-05-09T23:12:13.822Z,99803.78
2019-05-09T23:14:43.579Z,99804.98
2019-05-09T23:17:13.272Z,99804.02
2019-05-09T23:19:43.027Z,99806.11
2019-05-09T23:22:12.776Z,99807.64
2019-05-09T23:24:44.623Z,99802.53
2019-05-09T23:27:16.359Z,99807.41
2019-05-09T23:29:46.094Z,99809.86
2019-05-09T23:32:23.256Z,99810.19
2019-05-09T23:34:52.973Z,99805.77
2019-05-09T23:37:22.711Z,99811.89
2019-05-09T23:39:52.681Z,99816.15
2019-05-09T23:42:22.418Z,99811.02
2019-05-09T23:44:52.113Z,99809.37
2019-05-09T23:47:21.911Z,99814.69
2019-05-09T23:49:51.591Z,99811.59
2019-05-09T23:52:21.358Z,99811.77
2019-05-09T23:55:08.590Z,99817.34
2019-05-09T23:57:55.820Z,99818.43
